createdAt,value
2023-01-17T00:04:34.001Z,1.20
2023-01-17T00:07:34.379Z,1.50
2023-01-17T00:10:35.861Z,1.20
2023-01-17T00:13:17.350Z,1.25
2023-01-17T00:16:06.815Z,1.23
2023-01-17T00:18:48.077Z,1.52
2023-01-17T00:24:37.880Z,1.20
2023-01-17T00:27:13.177Z,3.05
2023-01-17T00:29:41.885Z,1.92
2023-01-17T00:35:20.030Z,1.08
2023-01-17T00:37:46.535Z,1.10
2023-01-17T00:40:13.154Z,1.30
2023-01-17T00:42:42.129Z,1.48
2023-01-17T00:45:29.986Z,1.10
2023-01-17T00:48:17.507Z,1.50
2023-01-17T00:51:06.991Z,1.10
2023-01-17T00:54:03.255Z,1.10
2023-01-17T00:57:05.896Z,1.17
2023-01-17T01:02:52.609Z,1.52
2023-01-17T01:12:27.662Z,1.30
2023-01-17T01:15:14.485Z,2.47
2023-01-17T01:18:11.663Z,1.23
2023-01-17T01:21:07.334Z,1.00
2023-01-17T01:26:53.531Z,1.48
2023-01-17T01:29:49.576Z,1.17
2023-01-17T01:32:48.506Z,2.38
2023-01-17T01:35:17.687Z,1.30
2023-01-17T01:37:47.060Z,1.67
2023-01-17T01:40:23.369Z,1.10
2023-01-17T01:42:57.085Z,1.20
2023-01-17T01:45:40.458Z,1.40
2023-01-17T01:48:16.356Z,0.85
2023-01-17T01:50:47.456Z,0.93
2023-01-17T01:56:20.851Z,1.08
2023-01-17T01:58:51.783Z,2.20
2023-01-17T02:01:26.716Z,2.35
2023-01-17T02:04:01.991Z,1.00
2023-01-17T02:06:50.293Z,1.02
2023-01-17T02:09:23.054Z,1.10
2023-01-17T02:12:21.539Z,1.30
2023-01-17T02:14:55.626Z,1.00
2023-01-17T02:17:43.719Z,1.00
2023-01-17T02:20:16.876Z,1.20
2023-01-17T02:23:10.384Z,0.93
2023-01-17T02:25:57.810Z,1.00
2023-01-17T02:28:26.471Z,1.95
2023-01-17T02:31:09.880Z,1.65
2023-01-17T02:33:50.294Z,1.20
2023-01-17T02:36:16.827Z,1.45
2023-01-17T02:39:02.545Z,1.45
2023-01-17T02:41:38.437Z,1.75
2023-01-17T02:44:06.047Z,1.10
2023-01-17T02:46:48.640Z,2.00
2023-01-17T02:49:22.856Z,2.65
2023-01-17T02:51:56.635Z,1.85
2023-01-17T02:54:45.074Z,1.83
2023-01-17T02:57:33.052Z,2.10
2023-01-17T03:00:20.809Z,2.45
2023-01-17T03:02:50.483Z,1.90
2023-01-17T03:05:34.738Z,2.05
2023-01-17T03:08:01.816Z,1.85
2023-01-17T03:10:32.047Z,2.17
2023-01-17T03:13:02.133Z,2.22
2023-01-17T03:15:40.248Z,2.42
2023-01-17T03:18:09.801Z,1.83
2023-01-17T03:20:39.954Z,1.90
2023-01-17T03:23:12.623Z,1.90
2023-01-17T03:25:39.897Z,1.40
2023-01-17T03:28:06.543Z,2.40
2023-01-17T03:30:37.228Z,1.27
2023-01-17T03:33:03.868Z,1.15
2023-01-17T03:35:36.988Z,1.33
2023-01-17T03:38:09.733Z,1.67
2023-01-17T03:40:39.111Z,1.10
2023-01-17T03:43:08.793Z,1.40
2023-01-17T03:45:38.850Z,1.67
2023-01-17T03:48:26.127Z,1.30
2023-01-17T03:50:57.388Z,1.30
2023-01-17T03:53:34.928Z,1.60
2023-01-17T03:56:10.185Z,1.20
2023-01-17T03:58:46.584Z,2.80
2023-01-17T04:01:16.365Z,1.70
2023-01-17T04:03:57.128Z,1.98
2023-01-17T04:06:28.616Z,1.80
2023-01-17T04:09:15.878Z,1.45
2023-01-17T04:11:45.116Z,1.60
2023-01-17T04:14:11.719Z,1.73
2023-01-17T04:16:49.805Z,3.50
2023-01-17T04:19:21.097Z,1.17
2023-01-17T04:22:09.167Z,1.40
2023-01-17T04:24:39.580Z,1.60
2023-01-17T04:27:16.986Z,1.40
2023-01-17T04:29:46.601Z,2.15
2023-01-17T04:32:13.415Z,1.50
2023-01-17T04:34:43.502Z,1.42
2023-01-17T04:37:12.476Z,1.40
2023-01-17T04:39:57.793Z,1.77
2023-01-17T04:42:43.218Z,1.58
2023-01-17T04:45:12.029Z,1.10
2023-01-17T04:47:51.613Z,2.90
2023-01-17T04:50:30.731Z,1.40
2023-01-17T04:53:00.099Z,1.20
2023-01-17T04:55:31.655Z,1.10
2023-01-17T04:58:09.231Z,1.33
2023-01-17T05:00:57.699Z,1.55
2023-01-17T05:03:26.563Z,1.60
2023-01-17T05:06:04.266Z,1.70
2023-01-17T05:08:34.145Z,1.30
2023-01-17T05:11:02.483Z,1.30
2023-01-17T05:13:39.137Z,1.60
2023-01-17T05:16:06.492Z,1.42
2023-01-17T05:18:38.474Z,1.70
2023-01-17T05:21:05.727Z,1.63
2023-01-17T05:23:33.080Z,1.50
2023-01-17T05:25:59.662Z,1.35
2023-01-17T05:28:28.472Z,1.42
2023-01-17T05:30:54.962Z,1.55
2023-01-17T05:33:21.632Z,1.60
2023-01-17T05:35:48.082Z,1.58
2023-01-17T05:38:14.637Z,1.50
2023-01-17T05:40:41.487Z,1.67
2023-01-17T05:43:08.723Z,1.77
2023-01-17T05:45:35.551Z,1.77
2023-01-17T05:48:02.293Z,1.40
2023-01-17T05:50:30.587Z,1.30
2023-01-17T05:53:01.455Z,1.88
2023-01-17T05:55:28.464Z,1.60
2023-01-17T05:57:55.451Z,1.63
2023-01-17T06:00:22.224Z,1.30
2023-01-17T06:02:49.575Z,1.90
2023-01-17T06:05:16.442Z,1.73
2023-01-17T06:07:43.812Z,2.88
2023-01-17T06:10:10.994Z,2.00
2023-01-17T06:12:38.768Z,1.65
2023-01-17T06:15:05.447Z,1.40
2023-01-17T06:17:31.897Z,2.42
2023-01-17T06:19:59.010Z,1.80
2023-01-17T06:22:25.598Z,2.30
2023-01-17T06:24:52.294Z,4.65
2023-01-17T06:27:18.827Z,2.47
2023-01-17T06:29:45.222Z,4.85
2023-01-17T06:32:13.357Z,3.70
2023-01-17T06:34:46.836Z,2.53
2023-01-17T06:37:13.377Z,2.85
2023-01-17T06:39:39.795Z,3.25
2023-01-17T06:42:18.143Z,1.73
2023-01-17T06:44:44.640Z,1.77
2023-01-17T06:47:11.080Z,1.88
2023-01-17T06:49:37.626Z,1.13
2023-01-17T06:52:04.317Z,2.40
2023-01-17T06:54:30.724Z,1.60
2023-01-17T06:56:57.291Z,1.27
2023-01-17T06:59:23.937Z,1.27
2023-01-17T07:01:50.364Z,1.50
2023-01-17T07:04:19.251Z,1.30
2023-01-17T07:06:45.822Z,1.20
2023-01-17T07:09:12.438Z,1.42
2023-01-17T07:11:41.912Z,1.30
2023-01-17T07:14:12.333Z,1.30
2023-01-17T07:19:05.248Z,1.25
2023-01-17T07:21:31.966Z,1.23
2023-01-17T07:23:58.567Z,1.20
2023-01-17T07:26:25.184Z,1.10
2023-01-17T07:28:57.410Z,1.45
2023-01-17T07:31:23.971Z,1.30
2023-01-17T07:33:50.518Z,1.40
2023-01-17T07:36:17.034Z,1.20
2023-01-17T07:38:45.814Z,1.30
2023-01-17T07:41:12.389Z,1.10
2023-01-17T07:43:41.436Z,1.20
2023-01-17T07:46:10.938Z,1.10
2023-01-17T07:48:37.388Z,1.13
2023-01-17T07:51:04.330Z,1.40
2023-01-17T07:53:34.260Z,1.20
2023-01-17T07:56:03.083Z,1.30
2023-01-17T07:58:29.636Z,1.55
2023-01-17T08:01:03.263Z,1.30
2023-01-17T08:03:32.462Z,1.25
2023-01-17T08:05:59.752Z,1.50
2023-01-17T08:08:30.839Z,1.40
2023-01-17T08:11:02.101Z,1.60
2023-01-17T08:13:29.908Z,1.70
2023-01-17T08:16:02.468Z,1.70
2023-01-17T08:18:32.696Z,1.67
2023-01-17T08:21:02.322Z,1.60
2023-01-17T08:23:31.663Z,1.90
2023-01-17T08:26:01.898Z,1.42
2023-01-17T08:28:28.709Z,2.20
2023-01-17T08:30:55.368Z,2.17
2023-01-17T08:33:21.858Z,2.28
2023-01-17T08:35:52.457Z,2.50
2023-01-17T08:38:19.267Z,2.20
2023-01-17T08:40:46.145Z,2.20
2023-01-17T08:43:13.269Z,2.33
2023-01-17T08:45:45.244Z,2.47
2023-01-17T08:48:13.625Z,2.58
2023-01-17T08:50:40.460Z,3.28
2023-01-17T08:53:08.556Z,2.17
2023-01-17T08:55:39.532Z,4.72
2023-01-17T08:58:06.004Z,7.93
2023-01-17T09:00:32.760Z,1.67
2023-01-17T09:02:59.746Z,2.53
2023-01-17T09:05:28.081Z,2.50
2023-01-17T09:07:58.776Z,3.60
2023-01-17T09:10:25.332Z,3.13
2023-01-17T09:12:52.051Z,3.20
2023-01-17T09:15:20.319Z,4.18
2023-01-17T09:17:47.739Z,4.10
2023-01-17T09:20:14.276Z,4.40
2023-01-17T09:22:45.066Z,2.30
2023-01-17T09:25:15.374Z,7.72
2023-01-17T09:27:45.180Z,2.38
2023-01-17T09:30:11.751Z,2.10
2023-01-17T09:32:41.282Z,2.25
2023-01-17T09:35:13.023Z,4.60
2023-01-17T09:37:41.929Z,2.45
2023-01-17T09:40:11.906Z,1.88
2023-01-17T09:42:40.266Z,4.20
2023-01-17T09:45:13.512Z,4.72
2023-01-17T09:47:53.801Z,1.90
2023-01-17T09:50:39.126Z,3.20
2023-01-17T09:53:07.333Z,4.07
2023-01-17T09:55:54.053Z,3.05
2023-01-17T09:58:34.491Z,4.05
2023-01-17T10:03:42.370Z,1.55
2023-01-17T10:06:09.900Z,3.47
2023-01-17T10:08:55.312Z,2.20
2023-01-17T10:11:33.141Z,2.67
2023-01-17T10:14:02.804Z,3.83
2023-01-17T10:16:51.153Z,2.85
2023-01-17T10:19:23.728Z,1.70
2023-01-17T10:22:12.347Z,2.70
2023-01-17T10:24:41.866Z,1.83
2023-01-17T10:27:21.215Z,2.30
2023-01-17T10:29:49.066Z,3.20
2023-01-17T10:32:16.263Z,2.03
2023-01-17T10:34:45.795Z,4.90
2023-01-17T10:37:15.248Z,3.33
2023-01-17T10:39:43.592Z,6.50
2023-01-17T10:42:20.040Z,6.93
2023-01-17T10:44:50.612Z,4.10
2023-01-17T10:47:21.648Z,4.18
2023-01-17T10:49:49.604Z,2.80
2023-01-17T10:52:16.808Z,2.28
2023-01-17T10:55:04.972Z,2.45
2023-01-17T10:57:39.448Z,3.20
2023-01-17T11:00:18.016Z,4.72
2023-01-17T11:02:47.603Z,3.10
2023-01-17T11:05:20.237Z,6.03
2023-01-17T11:07:58.959Z,5.68
2023-01-17T11:10:36.857Z,6.70
2023-01-17T11:13:24.723Z,4.35
2023-01-17T11:15:54.062Z,3.38
2023-01-17T11:18:21.991Z,7.57
2023-01-17T11:20:48.708Z,3.00
2023-01-17T11:23:21.202Z,6.88
2023-01-17T11:25:58.611Z,10.68
2023-01-17T11:28:30.833Z,2.90
2023-01-17T11:31:09.848Z,6.88
2023-01-17T11:33:46.322Z,4.18
2023-01-17T11:36:18.248Z,3.10
2023-01-17T11:38:56.158Z,2.67
2023-01-17T11:41:23.530Z,3.95
2023-01-17T11:43:53.187Z,4.10
2023-01-17T11:46:21.258Z,4.50
2023-01-17T11:48:50.637Z,6.53
2023-01-17T11:51:37.278Z,5.13
2023-01-17T11:54:28.766Z,2.90
2023-01-17T11:56:59.072Z,2.83
2023-01-17T11:59:37.503Z,2.33
2023-01-17T12:02:24.017Z,4.05
2023-01-17T12:04:56.789Z,2.25
2023-01-17T12:07:28.824Z,3.75
2023-01-17T12:10:13.076Z,3.17
2023-01-17T12:13:01.459Z,5.00
2023-01-17T12:15:30.931Z,5.18
2023-01-17T12:18:06.152Z,2.23
2023-01-17T12:20:50.553Z,5.60
2023-01-17T12:23:31.369Z,3.50
2023-01-17T12:26:00.849Z,8.45
2023-01-17T12:28:50.791Z,3.25
2023-01-17T12:31:20.336Z,2.63
2023-01-17T12:37:17.158Z,4.13
2023-01-17T12:39:48.854Z,2.65
2023-01-17T12:42:24.591Z,6.72
2023-01-17T12:45:06.451Z,2.10
2023-01-17T12:47:38.065Z,7.88
2023-01-17T12:50:24.787Z,6.30
2023-01-17T12:52:57.018Z,5.50
2023-01-17T12:55:37.871Z,3.72
2023-01-17T13:04:13.413Z,4.80
2023-01-17T13:07:06.371Z,4.45
2023-01-17T13:09:51.928Z,2.88
2023-01-17T13:12:22.815Z,2.95
2023-01-17T13:15:08.768Z,4.35
2023-01-17T13:20:56.911Z,8.27
2023-01-17T13:23:34.383Z,3.03
2023-01-17T13:26:10.541Z,4.43
2023-01-17T13:28:55.012Z,5.63
2023-01-17T13:32:07.754Z,3.15
2023-01-17T13:35:25.290Z,6.80
2023-01-17T13:38:09.500Z,2.20
2023-01-17T13:41:51.016Z,4.65
2023-01-17T13:44:11.467Z,6.75
2023-01-17T13:47:09.642Z,4.95
2023-01-17T13:52:49.507Z,3.17
2023-01-17T13:55:39.905Z,2.60
2023-01-17T14:01:50.874Z,2.53
2023-01-17T14:04:44.852Z,5.05
2023-01-17T14:07:22.542Z,11.70
2023-01-17T14:09:55.271Z,2.22
2023-01-17T14:12:31.707Z,2.78
2023-01-17T14:15:10.140Z,2.38
2023-01-17T14:18:05.082Z,2.45
2023-01-17T14:21:08.934Z,2.90
2023-01-17T14:23:51.376Z,2.75
2023-01-17T14:26:44.581Z,5.65
2023-01-17T14:32:44.304Z,5.03
2023-01-17T14:35:53.872Z,3.00
2023-01-17T14:38:44.964Z,5.22
2023-01-17T14:41:22.728Z,3.75
2023-01-17T14:43:58.642Z,7.95
2023-01-17T14:46:32.471Z,3.53
2023-01-17T14:49:03.175Z,4.30
2023-01-17T14:51:47.147Z,4.15
2023-01-17T14:54:23.504Z,10.85
2023-01-17T14:56:50.529Z,4.93
2023-01-17T14:59:23.700Z,7.63
2023-01-17T15:02:06.837Z,10.50
2023-01-17T15:04:40.021Z,6.45
2023-01-17T15:07:18.076Z,10.00
2023-01-17T15:09:48.104Z,11.02
2023-01-17T15:12:21.247Z,7.35
2023-01-17T15:14:48.065Z,6.50
2023-01-17T15:17:24.539Z,4.03
2023-01-17T15:19:59.519Z,4.68
2023-01-17T15:22:30.233Z,3.95
2023-01-17T15:24:56.963Z,4.35
2023-01-17T15:27:28.311Z,5.25
2023-01-17T15:30:04.208Z,4.25
2023-01-17T15:32:39.633Z,5.75
2023-01-17T15:35:18.333Z,4.18
2023-01-17T15:37:47.360Z,9.27
2023-01-17T15:40:21.593Z,4.50
2023-01-17T15:42:50.395Z,9.95
2023-01-17T15:45:21.082Z,4.88
2023-01-17T15:47:50.482Z,9.02
2023-01-17T15:50:20.211Z,9.25
2023-01-17T15:52:56.254Z,7.20
2023-01-17T15:55:30.324Z,8.07
2023-01-17T15:57:56.907Z,7.90
2023-01-17T16:00:26.653Z,8.68
2023-01-17T16:02:59.847Z,15.90
2023-01-17T16:05:33.297Z,11.05
2023-01-17T16:08:11.550Z,11.18
2023-01-17T16:10:39.459Z,13.05
2023-01-17T16:13:07.215Z,13.48
2023-01-17T16:15:37.176Z,9.98
2023-01-17T16:18:03.955Z,8.57
2023-01-17T16:20:33.497Z,8.80
2023-01-17T16:23:00.624Z,8.63
2023-01-17T16:25:32.580Z,10.98
2023-01-17T16:27:59.752Z,9.65
2023-01-17T16:30:26.617Z,8.00
2023-01-17T16:32:53.151Z,7.25
2023-01-17T16:35:20.837Z,8.50
2023-01-17T16:37:51.669Z,13.73
2023-01-17T16:40:22.116Z,7.55
2023-01-17T16:42:48.758Z,11.30
2023-01-17T16:45:17.164Z,10.63
2023-01-17T16:47:44.751Z,8.60
2023-01-17T16:50:12.948Z,10.35
2023-01-17T16:52:40.511Z,6.93
2023-01-17T16:55:09.531Z,14.48
2023-01-17T16:57:36.108Z,13.25
2023-01-17T17:00:05.433Z,11.05
2023-01-17T17:02:32.517Z,8.88
2023-01-17T17:04:59.099Z,7.30
2023-01-17T17:07:25.568Z,10.65
2023-01-17T17:09:51.923Z,9.35
2023-01-17T17:12:18.348Z,10.70
2023-01-17T17:14:44.785Z,13.27
2023-01-17T17:17:11.185Z,18.98
2023-01-17T17:19:37.658Z,11.45
2023-01-17T17:22:06.660Z,18.25
2023-01-17T17:24:33.409Z,21.55
2023-01-17T17:26:59.943Z,17.33
2023-01-17T17:29:26.449Z,18.85
2023-01-17T17:31:53.754Z,29.90
2023-01-17T17:34:20.975Z,16.60
2023-01-17T17:36:47.484Z,16.00
2023-01-17T17:39:17.635Z,12.70
2023-01-17T17:41:45.481Z,20.50
2023-01-17T17:44:12.146Z,20.15
2023-01-17T17:46:38.638Z,22.45
2023-01-17T17:49:06.834Z,15.98
2023-01-17T17:51:33.260Z,21.08
2023-01-17T17:54:01.023Z,12.52
2023-01-17T17:56:31.923Z,18.38
2023-01-17T17:58:58.806Z,22.75
2023-01-17T18:01:25.431Z,22.27
2023-01-17T18:03:52.762Z,17.02
2023-01-17T18:06:19.776Z,19.48
2023-01-17T18:08:46.378Z,26.15
2023-01-17T18:11:21.329Z,25.85
2023-01-17T18:13:52.458Z,31.55
2023-01-17T18:16:19.157Z,28.17
2023-01-17T18:18:46.990Z,27.33
2023-01-17T18:21:15.033Z,24.70
2023-01-17T18:23:43.446Z,21.65
2023-01-17T18:26:18.551Z,17.77
2023-01-17T18:28:45.058Z,23.88
2023-01-17T18:31:11.676Z,18.20
2023-01-17T18:33:39.726Z,30.42
2023-01-17T18:36:07.450Z,24.92
2023-01-17T18:38:43.937Z,23.08
2023-01-17T18:41:13.964Z,27.63
2023-01-17T18:43:40.483Z,27.95
2023-01-17T18:46:10.435Z,27.33
2023-01-17T18:48:37.302Z,35.47
2023-01-17T18:51:05.652Z,38.53
2023-01-17T18:53:33.126Z,28.38
2023-01-17T18:56:01.911Z,26.40
2023-01-17T18:58:29.158Z,32.95
2023-01-17T19:00:55.943Z,31.05
2023-01-17T19:03:28.611Z,34.78
2023-01-17T19:05:55.119Z,31.55
2023-01-17T19:08:21.781Z,30.15
2023-01-17T19:10:48.658Z,31.98
2023-01-17T19:13:15.120Z,36.17
2023-01-17T19:15:41.857Z,34.97
2023-01-17T19:18:08.339Z,28.20
2023-01-17T19:20:35.545Z,35.75
2023-01-17T19:23:01.983Z,28.42
2023-01-17T19:25:28.596Z,30.20
2023-01-17T19:27:55.339Z,34.63
2023-01-17T19:30:22.297Z,26.65
2023-01-17T19:32:52.311Z,33.60
2023-01-17T19:35:19.458Z,31.02
2023-01-17T19:37:47.313Z,30.27
2023-01-17T19:40:14.784Z,29.63
2023-01-17T19:42:41.254Z,37.20
2023-01-17T19:45:08.934Z,40.15
2023-01-17T19:47:35.528Z,36.65
2023-01-17T19:50:02.437Z,36.75
2023-01-17T19:52:29.803Z,36.90
2023-01-17T19:54:56.161Z,35.25
2023-01-17T19:57:24.303Z,39.22
2023-01-17T19:59:50.959Z,42.58
2023-01-17T20:02:17.563Z,35.20
2023-01-17T20:04:44.308Z,33.90
2023-01-17T20:07:10.742Z,31.15
2023-01-17T20:09:37.291Z,28.35
2023-01-17T20:12:03.714Z,34.20
2023-01-17T20:14:30.161Z,32.30
2023-01-17T20:16:56.609Z,30.55
2023-01-17T20:19:23.037Z,26.40
2023-01-17T20:21:49.426Z,29.50
2023-01-17T20:24:16.627Z,25.77
2023-01-17T20:26:44.170Z,26.98
2023-01-17T20:29:12.098Z,28.88
2023-01-17T20:31:39.390Z,25.17
2023-01-17T20:34:07.000Z,31.02
2023-01-17T20:36:33.815Z,30.77
2023-01-17T20:39:02.694Z,34.17
2023-01-17T20:41:30.857Z,42.28
2023-01-17T20:43:58.342Z,30.42
2023-01-17T20:46:25.789Z,37.17
2023-01-17T20:48:53.144Z,29.83
2023-01-17T20:51:19.890Z,29.33
2023-01-17T20:53:47.111Z,33.08
2023-01-17T20:56:14.673Z,23.02
2023-01-17T20:58:41.727Z,28.83
2023-01-17T21:01:09.423Z,27.48
2023-01-17T21:03:36.280Z,24.48
2023-01-17T21:06:04.235Z,33.50
2023-01-17T21:08:31.358Z,29.40
2023-01-17T21:10:57.820Z,24.73
2023-01-17T21:13:24.654Z,27.80
2023-01-17T21:15:52.010Z,21.73
2023-01-17T21:18:19.588Z,26.17
2023-01-17T21:20:46.657Z,20.95
2023-01-17T21:23:17.986Z,30.77
2023-01-17T21:25:55.796Z,27.15
2023-01-17T21:28:22.965Z,27.40
2023-01-17T21:30:52.443Z,33.22
2023-01-17T21:33:19.570Z,33.25
2023-01-17T21:35:46.395Z,34.63
2023-01-17T21:38:14.063Z,34.40
2023-01-17T21:40:41.191Z,29.15
2023-01-17T21:43:07.725Z,33.08
2023-01-17T21:45:37.912Z,30.80
2023-01-17T21:48:04.791Z,29.95
2023-01-17T21:50:33.619Z,34.92
2023-01-17T21:53:00.570Z,30.02
2023-01-17T21:55:45.731Z,28.85
2023-01-17T21:58:35.123Z,30.08
2023-01-17T22:01:11.057Z,27.55
2023-01-17T22:03:37.832Z,31.05
2023-01-17T22:06:05.031Z,30.70
2023-01-17T22:08:32.697Z,32.58
2023-01-17T22:11:03.216Z,29.90
2023-01-17T22:15:59.922Z,32.45
2023-01-17T22:18:26.406Z,30.10
2023-01-17T22:20:52.884Z,34.47
2023-01-17T22:23:19.443Z,36.28
2023-01-17T22:25:45.890Z,29.00
2023-01-17T22:28:12.503Z,29.17
2023-01-17T22:30:39.031Z,31.65
2023-01-17T22:33:05.567Z,24.73
2023-01-17T22:35:32.265Z,25.25
2023-01-17T22:37:58.839Z,25.13
2023-01-17T22:40:26.195Z,24.95
2023-01-17T22:42:52.663Z,25.88
2023-01-17T22:45:19.271Z,23.85
2023-01-17T22:47:45.763Z,31.38
2023-01-17T22:50:12.397Z,22.90
2023-01-17T22:52:38.931Z,24.25
2023-01-17T22:55:05.817Z,22.27
2023-01-17T22:57:32.219Z,22.92
2023-01-17T22:59:58.549Z,29.45
2023-01-17T23:02:25.175Z,31.20
2023-01-17T23:04:51.640Z,24.83
2023-01-17T23:07:18.038Z,24.00
2023-01-17T23:09:44.706Z,28.27
2023-01-17T23:12:11.190Z,25.35
2023-01-17T23:14:56.288Z,22.25
2023-01-17T23:17:45.570Z,20.87
2023-01-17T23:20:11.925Z,25.88
2023-01-17T23:22:38.570Z,32.88
2023-01-17T23:25:37.879Z,23.60
2023-01-17T23:28:20.551Z,24.23
2023-01-17T23:30:47.933Z,25.80
2023-01-17T23:33:15.787Z,18.42
2023-01-17T23:35:48.389Z,20.90
2023-01-17T23:38:33.727Z,19.75
2023-01-17T23:41:23.641Z,17.73
2023-01-17T23:44:01.722Z,25.10
2023-01-17T23:46:31.405Z,17.67
2023-01-17T23:49:22.603Z,22.50
2023-01-17T23:52:09.658Z,16.30
2023-01-17T23:54:47.316Z,20.98
2023-01-17T23:57:14.017Z,16.35
